map of CFN home
CFN - Airport
Location
City:  Carrickfinn, County Donegal, Ulster, Ireland
Name:Donegal
ICAO:EIDL
IATA:CFN

Details
Type:Airport (Aerodrome, Airfield)
Latitude:5502'39"N (55.044192)
Longitude:820'28"W (-8.340999)
Elevation:30 ft (9 m)
Variation:3.80W (WMM2015v2 magnetic declination)
0.22 annual change
Runways:1
Longest:4908 × 98 ft (1496 × 30 m), paved

Time
Time Zone:UTC+0 (DST+1)
Local Time:

Weather
METAR:EIDL 041400Z 29012KT CAVOK 08/02 Q1015

Related Locations
Nearby:
Farthest:SZS: 11847 mi / 19065 km
Ryan's Creek, Stewart Island, STL, NZ

Find:

   beyond  
but within

Other Information
Maps:
NOTAMs:
Links:
Sources:

  
  • flag of Ireland
  • flag of Ulster
  

Sectional Chart

Flight Planning
at skyvector.com

Satellite Image

Google Maps Satellite view

 

Copyright © 2004-2019 Karl L. Swartz. All rights reserved.
The Great Circle Mapper name and logo are trademarks of the Great Circle Mapper.
All other trademarks mentioned herein belong to their respective owners.
Please see credits for attibutions and further copyright information.

  Follow gcmap on Facebook Follow gcmap on Twitter GCmap on LinkedIn

hCard Microformat

Geo Microformat